createdAt,value
2018-11-26T00:01:50.452Z,7.40
2018-11-26T00:04:19.528Z,7.40
2018-11-26T00:06:47.883Z,7.40
2018-11-26T00:09:16.211Z,7.30
2018-11-26T00:11:45.587Z,7.40
2018-11-26T00:14:13.949Z,7.40
2018-11-26T00:16:42.354Z,7.30
2018-11-26T00:19:10.696Z,7.30
2018-11-26T00:21:39.107Z,7.30
2018-11-26T00:24:07.518Z,7.30
2018-11-26T00:26:35.995Z,7.30
2018-11-26T00:29:04.361Z,7.30
2018-11-26T00:31:37.063Z,7.40
2018-11-26T00:34:05.675Z,7.40
2018-11-26T00:36:34.080Z,7.30
2018-11-26T00:39:02.463Z,7.30
2018-11-26T00:41:31.212Z,7.30
2018-11-26T00:43:59.581Z,7.40
2018-11-26T00:46:28.060Z,7.40
2018-11-26T00:48:56.404Z,7.40
2018-11-26T00:51:24.730Z,7.40
2018-11-26T00:53:53.098Z,7.40
2018-11-26T00:56:21.522Z,7.40
2018-11-26T00:58:49.867Z,7.40
2018-11-26T01:01:18.246Z,7.30
2018-11-26T01:03:46.676Z,7.40
2018-11-26T01:06:15.024Z,7.40
2018-11-26T01:08:43.471Z,7.40
2018-11-26T01:11:11.861Z,7.40
2018-11-26T01:13:40.301Z,7.40
2018-11-26T01:16:08.694Z,7.40
2018-11-26T01:18:37.100Z,7.30
2018-11-26T01:21:06.003Z,7.20
2018-11-26T01:23:34.931Z,7.30
2018-11-26T01:26:03.423Z,7.30
2018-11-26T01:28:31.803Z,7.40
2018-11-26T01:31:00.182Z,7.30
2018-11-26T01:33:28.516Z,7.40
2018-11-26T01:35:56.890Z,7.40
2018-11-26T01:38:25.284Z,7.30
2018-11-26T01:40:53.730Z,7.30
2018-11-26T01:43:22.203Z,7.30
2018-11-26T01:45:50.563Z,7.40
2018-11-26T01:48:18.928Z,7.30
2018-11-26T01:50:47.270Z,7.40
2018-11-26T01:53:15.652Z,7.40
2018-11-26T01:55:44.330Z,7.40
2018-11-26T01:58:12.681Z,7.40
2018-11-26T02:00:41.035Z,7.30
2018-11-26T02:03:09.414Z,7.20
2018-11-26T02:05:38.028Z,7.30
2018-11-26T02:08:06.917Z,7.30
2018-11-26T02:10:35.320Z,7.30
2018-11-26T02:13:03.846Z,7.30
2018-11-26T02:15:38.848Z,7.20
2018-11-26T02:18:08.193Z,7.30
2018-11-26T02:20:36.609Z,7.20
2018-11-26T02:23:05.061Z,7.30
2018-11-26T02:25:33.430Z,7.30
2018-11-26T02:28:01.801Z,7.30
2018-11-26T02:30:30.165Z,7.30
2018-11-26T02:32:58.574Z,7.20
2018-11-26T02:35:27.167Z,7.20
2018-11-26T02:37:55.654Z,7.30
2018-11-26T02:40:30.012Z,7.30
2018-11-26T02:42:58.430Z,7.30
2018-11-26T02:45:27.432Z,7.30
2018-11-26T02:47:56.100Z,7.20
2018-11-26T02:50:24.500Z,7.20
2018-11-26T02:52:52.905Z,7.20
2018-11-26T02:55:21.286Z,7.20
2018-11-26T02:57:49.948Z,7.20
2018-11-26T03:00:18.362Z,7.30
2018-11-26T03:02:46.751Z,7.30
2018-11-26T03:05:30.998Z,7.20
2018-11-26T03:07:59.511Z,7.10
2018-11-26T03:10:27.886Z,7.20
2018-11-26T03:12:56.299Z,7.20
2018-11-26T03:15:24.739Z,7.20
2018-11-26T03:17:53.121Z,7.20
2018-11-26T03:20:21.515Z,7.20
2018-11-26T03:22:50.198Z,7.20
2018-11-26T03:25:18.582Z,7.20
2018-11-26T03:27:46.976Z,7.20
2018-11-26T03:30:17.746Z,7.30
2018-11-26T03:32:46.092Z,7.20
2018-11-26T03:35:14.483Z,7.30
2018-11-26T03:37:42.989Z,7.30
2018-11-26T03:40:12.468Z,7.20
2018-11-26T03:42:40.912Z,7.20
2018-11-26T03:45:14.613Z,7.20
2018-11-26T03:47:43.038Z,7.20
2018-11-26T03:50:12.473Z,7.20
2018-11-26T03:52:41.697Z,7.20
2018-11-26T03:55:10.891Z,7.10
2018-11-26T03:57:39.279Z,7.20
2018-11-26T04:00:12.007Z,7.10
2018-11-26T04:02:40.381Z,7.10
2018-11-26T04:05:09.933Z,7.10
2018-11-26T04:07:38.289Z,7.00
2018-11-26T04:10:08.782Z,7.00
2018-11-26T04:12:37.283Z,7.00
2018-11-26T04:15:07.177Z,6.90
2018-11-26T04:17:36.055Z,6.90
2018-11-26T04:20:04.655Z,6.80
2018-11-26T04:22:33.086Z,6.70
2018-11-26T04:25:01.545Z,6.70
2018-11-26T04:27:29.987Z,6.70
2018-11-26T04:29:58.337Z,6.50
2018-11-26T04:32:26.752Z,6.40
2018-11-26T04:34:55.116Z,6.60
2018-11-26T04:37:23.467Z,6.60
2018-11-26T04:39:51.865Z,6.60
2018-11-26T04:42:20.288Z,6.50
2018-11-26T04:44:48.768Z,6.60
2018-11-26T04:47:17.138Z,6.50
2018-11-26T04:49:45.511Z,6.50
2018-11-26T04:52:13.865Z,6.40
2018-11-26T04:54:42.395Z,6.50
2018-11-26T04:57:10.704Z,6.40
2018-11-26T04:59:39.057Z,6.50
2018-11-26T05:02:07.460Z,6.40
2018-11-26T05:04:35.825Z,6.40
2018-11-26T05:07:04.191Z,6.40
2018-11-26T05:09:32.517Z,6.50
2018-11-26T05:12:00.852Z,6.40
2018-11-26T05:14:29.224Z,6.40
2018-11-26T05:16:57.581Z,6.40
2018-11-26T05:19:26.064Z,6.40
2018-11-26T05:21:54.533Z,6.40
2018-11-26T05:24:22.947Z,6.30
2018-11-26T05:26:51.303Z,6.30
2018-11-26T05:29:19.670Z,6.30
2018-11-26T05:31:47.996Z,6.30
2018-11-26T05:34:16.343Z,6.30
2018-11-26T05:36:44.679Z,6.30
2018-11-26T05:39:13.769Z,6.40
2018-11-26T05:41:42.159Z,6.40
2018-11-26T05:44:10.507Z,6.40
2018-11-26T05:46:38.871Z,6.40
2018-11-26T05:49:07.480Z,6.40
2018-11-26T05:51:35.883Z,6.50
2018-11-26T05:54:04.346Z,6.40
2018-11-26T05:56:33.163Z,6.40
2018-11-26T05:59:01.542Z,6.40
2018-11-26T06:01:29.955Z,6.50
2018-11-26T06:03:58.291Z,6.40
2018-11-26T06:06:26.659Z,6.40
2018-11-26T06:08:55.010Z,6.40
2018-11-26T06:11:23.372Z,6.40
2018-11-26T06:13:51.729Z,6.40
2018-11-26T06:16:20.110Z,6.30
2018-11-26T06:18:48.454Z,6.30
2018-11-26T06:21:16.884Z,6.30
2018-11-26T06:23:45.255Z,6.30
2018-11-26T06:26:13.615Z,6.30
2018-11-26T06:28:41.972Z,6.40
2018-11-26T06:31:10.315Z,6.40
2018-11-26T06:33:38.648Z,6.40
2018-11-26T06:36:07.000Z,6.40
2018-11-26T06:38:35.416Z,6.40
2018-11-26T06:41:03.786Z,6.40
2018-11-26T06:43:32.150Z,6.40
2018-11-26T06:46:00.526Z,6.30
2018-11-26T06:48:28.943Z,6.30
2018-11-26T06:50:57.696Z,6.40
2018-11-26T06:53:26.056Z,6.40
2018-11-26T06:55:54.559Z,6.40
2018-11-26T06:58:22.929Z,6.30
2018-11-26T07:00:51.316Z,6.30
2018-11-26T07:03:19.701Z,6.40
2018-11-26T07:05:48.093Z,6.40
2018-11-26T07:08:16.439Z,6.40
2018-11-26T07:10:44.848Z,6.40
2018-11-26T07:13:13.193Z,6.40
2018-11-26T07:15:41.603Z,6.40
2018-11-26T07:18:10.004Z,6.40
2018-11-26T07:20:38.364Z,6.50
2018-11-26T07:23:06.791Z,6.50
2018-11-26T07:25:35.207Z,6.60
2018-11-26T07:28:06.127Z,6.70
2018-11-26T07:30:34.529Z,6.60
2018-11-26T07:33:03.228Z,6.60
2018-11-26T07:35:32.368Z,6.60
2018-11-26T07:38:00.852Z,6.60
2018-11-26T07:40:29.228Z,6.60
2018-11-26T07:43:03.123Z,6.70
2018-11-26T07:45:31.472Z,6.70
2018-11-26T07:47:59.868Z,6.70
2018-11-26T07:50:28.312Z,6.80
2018-11-26T07:52:56.632Z,6.80
2018-11-26T07:55:25.038Z,6.90
2018-11-26T07:57:53.423Z,6.80
2018-11-26T08:00:22.279Z,6.90
2018-11-26T08:02:50.939Z,6.90
2018-11-26T08:05:20.787Z,7.70
2018-11-26T08:07:49.246Z,8.00
2018-11-26T08:10:19.478Z,8.20
2018-11-26T08:12:48.823Z,8.20
2018-11-26T08:15:19.268Z,8.40
2018-11-26T08:17:47.678Z,8.70
2018-11-26T08:20:16.110Z,8.70
2018-11-26T08:22:44.496Z,8.60
2018-11-26T08:25:15.053Z,8.60
2018-11-26T08:27:44.229Z,8.50
2018-11-26T08:30:15.544Z,8.50
2018-11-26T08:32:44.944Z,8.50
2018-11-26T08:35:14.559Z,8.50
2018-11-26T08:37:48.410Z,8.60
2018-11-26T08:40:20.255Z,8.50
2018-11-26T08:42:55.873Z,8.40
2018-11-26T08:45:29.873Z,8.60
2018-11-26T08:48:03.516Z,8.70
2018-11-26T08:50:31.857Z,8.70
2018-11-26T08:53:00.221Z,8.90
2018-11-26T08:55:28.624Z,9.00
2018-11-26T08:57:56.999Z,9.10
2018-11-26T09:00:25.350Z,9.10
2018-11-26T09:02:55.537Z,9.20
2018-11-26T09:05:29.689Z,9.20
2018-11-26T09:07:58.015Z,9.20
2018-11-26T09:10:26.371Z,9.30
2018-11-26T09:12:54.768Z,9.40
2018-11-26T09:15:23.128Z,9.30
2018-11-26T09:17:51.467Z,9.30
2018-11-26T09:20:19.900Z,9.20
2018-11-26T09:22:48.304Z,9.20
2018-11-26T09:25:16.732Z,9.30
2018-11-26T09:27:45.144Z,9.10
2018-11-26T09:30:14.407Z,9.30
2018-11-26T09:32:43.290Z,9.20
2018-11-26T09:35:15.077Z,9.20
2018-11-26T09:37:43.464Z,9.40
2018-11-26T09:40:16.026Z,9.30
2018-11-26T09:42:44.429Z,9.20
2018-11-26T09:45:14.984Z,9.40
2018-11-26T09:47:43.303Z,9.40
2018-11-26T09:50:15.943Z,9.30
2018-11-26T09:52:44.294Z,9.40
2018-11-26T09:55:13.818Z,9.20
2018-11-26T09:57:42.865Z,9.00
2018-11-26T10:00:13.952Z,9.00
2018-11-26T10:02:43.440Z,8.80
2018-11-26T10:05:14.232Z,8.80
2018-11-26T10:07:42.580Z,8.70
2018-11-26T10:10:13.293Z,8.80
2018-11-26T10:12:42.373Z,8.80
2018-11-26T10:15:26.744Z,8.90
2018-11-26T10:17:55.123Z,8.80
2018-11-26T10:20:23.515Z,8.90
2018-11-26T10:22:52.687Z,8.90
2018-11-26T10:25:21.937Z,8.90
2018-11-26T10:27:50.437Z,8.90
2018-11-26T10:30:21.252Z,8.80
2018-11-26T10:32:50.694Z,8.70
2018-11-26T10:35:19.865Z,8.60
2018-11-26T10:37:48.238Z,8.60
2018-11-26T10:40:21.129Z,8.70
2018-11-26T10:42:49.499Z,8.80
2018-11-26T10:45:19.351Z,8.80
2018-11-26T10:47:47.715Z,8.90
2018-11-26T10:50:17.430Z,8.80
2018-11-26T10:52:47.148Z,8.80
2018-11-26T10:55:17.019Z,9.00
2018-11-26T10:57:45.416Z,9.10
2018-11-26T11:00:20.206Z,9.40
2018-11-26T11:02:48.833Z,9.90
2018-11-26T11:05:17.384Z,10.50
2018-11-26T11:07:45.795Z,10.70
2018-11-26T11:10:19.390Z,10.70
2018-11-26T11:12:47.769Z,10.50
2018-11-26T11:15:16.168Z,10.30
2018-11-26T11:17:44.543Z,10.30
2018-11-26T11:20:20.019Z,10.20
2018-11-26T11:22:48.394Z,9.90
2018-11-26T11:25:17.496Z,9.70
2018-11-26T11:27:45.975Z,9.90
2018-11-26T11:30:18.186Z,9.80
2018-11-26T11:32:46.522Z,9.60
2018-11-26T11:35:15.618Z,9.50
2018-11-26T11:37:45.314Z,9.40
2018-11-26T11:40:17.776Z,9.40
2018-11-26T11:42:46.241Z,9.30
2018-11-26T11:45:14.844Z,9.10
2018-11-26T11:47:43.269Z,9.20
2018-11-26T11:50:14.854Z,9.20
2018-11-26T11:52:43.308Z,9.10
2018-11-26T11:55:13.616Z,9.00
2018-11-26T11:57:42.152Z,9.00
2018-11-26T12:00:12.078Z,9.00
2018-11-26T12:02:41.752Z,9.00
2018-11-26T12:05:13.312Z,9.00
2018-11-26T12:07:41.667Z,9.00
2018-11-26T12:10:11.169Z,9.00
2018-11-26T12:12:39.537Z,8.90
2018-11-26T12:15:13.320Z,8.80
2018-11-26T12:17:42.095Z,8.80
2018-11-26T12:20:11.585Z,8.70
2018-11-26T12:22:40.237Z,8.70
2018-11-26T12:25:25.017Z,8.70
2018-11-26T12:27:53.428Z,8.70
2018-11-26T12:30:25.776Z,8.80
2018-11-26T12:32:54.172Z,8.80
2018-11-26T12:35:22.566Z,8.80
2018-11-26T12:37:51.229Z,8.60
2018-11-26T12:40:23.422Z,8.60
2018-11-26T12:42:54.020Z,8.60
2018-11-26T12:45:24.471Z,8.50
2018-11-26T12:47:52.822Z,8.50
2018-11-26T12:50:21.262Z,8.50
2018-11-26T12:52:49.655Z,8.60
2018-11-26T12:55:19.196Z,8.60
2018-11-26T12:57:48.427Z,8.60
2018-11-26T13:00:18.068Z,8.60
2018-11-26T13:02:49.748Z,8.60
2018-11-26T13:05:19.936Z,8.60
2018-11-26T13:07:48.311Z,8.50
2018-11-26T13:10:18.927Z,8.50
2018-11-26T13:12:47.958Z,8.50
2018-11-26T13:15:17.559Z,8.50
2018-11-26T13:17:46.056Z,8.40
2018-11-26T13:20:17.743Z,8.40
2018-11-26T13:22:46.121Z,8.40
2018-11-26T13:25:16.606Z,8.50
2018-11-26T13:27:47.156Z,8.40
2018-11-26T13:30:17.816Z,8.40
2018-11-26T13:32:48.252Z,8.40
2018-11-26T13:35:17.515Z,8.40
2018-11-26T13:37:45.861Z,8.40
2018-11-26T13:40:15.215Z,8.40
2018-11-26T13:42:43.773Z,8.30
2018-11-26T13:45:15.743Z,8.30
2018-11-26T13:47:44.220Z,8.30
2018-11-26T13:50:16.885Z,8.40
2018-11-26T13:52:45.264Z,8.40
2018-11-26T13:55:13.661Z,8.30
2018-11-26T13:57:42.045Z,8.40
2018-11-26T14:00:12.569Z,8.30
2018-11-26T14:02:40.996Z,8.20
2018-11-26T14:05:10.831Z,8.30
2018-11-26T14:07:39.909Z,8.20
2018-11-26T14:10:11.183Z,8.20
2018-11-26T14:12:39.879Z,8.20
2018-11-26T14:15:10.928Z,8.20
2018-11-26T14:17:39.682Z,8.30
2018-11-26T14:20:15.134Z,8.20
2018-11-26T14:22:43.590Z,8.30
2018-11-26T14:25:14.771Z,8.20
2018-11-26T14:27:43.764Z,8.10
2018-11-26T14:30:16.416Z,8.10
2018-11-26T14:32:44.848Z,8.20
2018-11-26T14:35:13.221Z,8.20
2018-11-26T14:37:41.971Z,8.20
2018-11-26T14:40:14.010Z,8.20
2018-11-26T14:42:42.446Z,8.20
2018-11-26T14:45:12.020Z,8.20
2018-11-26T14:47:40.565Z,8.10
2018-11-26T14:50:10.738Z,8.20
2018-11-26T14:52:39.226Z,8.20
2018-11-26T14:55:12.797Z,8.20
2018-11-26T14:57:41.311Z,8.20
2018-11-26T15:00:13.238Z,8.10
2018-11-26T15:02:41.710Z,8.10
2018-11-26T15:05:10.735Z,8.00
2018-11-26T15:07:39.137Z,8.00
2018-11-26T15:10:09.570Z,8.00
2018-11-26T15:12:37.942Z,7.80
2018-11-26T15:15:08.644Z,7.90
2018-11-26T15:17:37.065Z,7.80
2018-11-26T15:20:10.409Z,7.80
2018-11-26T15:22:38.808Z,7.90
2018-11-26T15:25:09.522Z,7.80
2018-11-26T15:27:37.877Z,7.70
2018-11-26T15:30:12.452Z,7.70
2018-11-26T15:32:41.121Z,7.60
2018-11-26T15:35:11.147Z,7.70
2018-11-26T15:37:39.614Z,7.60
2018-11-26T15:40:08.965Z,7.60
2018-11-26T15:42:37.400Z,7.50
2018-11-26T15:45:13.652Z,7.60
2018-11-26T15:47:42.060Z,7.50
2018-11-26T15:50:10.508Z,7.40
2018-11-26T15:52:38.931Z,7.30
2018-11-26T15:55:10.128Z,7.40
2018-11-26T15:57:38.512Z,7.40
2018-11-26T16:00:11.937Z,7.40
2018-11-26T16:02:40.313Z,7.40
2018-11-26T16:05:10.561Z,7.40
2018-11-26T16:07:38.921Z,7.30
2018-11-26T16:10:09.732Z,7.30
2018-11-26T16:12:38.124Z,7.40
2018-11-26T16:15:12.460Z,7.30
2018-11-26T16:17:40.887Z,7.30
2018-11-26T16:20:11.931Z,7.30
2018-11-26T16:22:40.366Z,7.30
2018-11-26T16:25:12.946Z,7.30
2018-11-26T16:27:41.329Z,7.20
2018-11-26T16:30:11.551Z,7.20
2018-11-26T16:32:39.985Z,7.30
2018-11-26T16:35:11.426Z,7.30
2018-11-26T16:37:39.808Z,7.20
2018-11-26T16:40:11.468Z,7.30
2018-11-26T16:42:39.840Z,7.30
2018-11-26T16:45:10.695Z,7.20
2018-11-26T16:47:39.023Z,7.20
2018-11-26T16:50:09.993Z,7.10
2018-11-26T16:52:38.305Z,7.10
2018-11-26T16:55:10.619Z,7.10
2018-11-26T16:57:39.059Z,7.10
2018-11-26T17:00:12.446Z,7.00
2018-11-26T17:02:40.833Z,7.10
2018-11-26T17:05:11.679Z,7.00
2018-11-26T17:07:40.065Z,7.00
2018-11-26T17:10:09.284Z,6.90
2018-11-26T17:12:37.889Z,6.90
2018-11-26T17:15:08.459Z,7.00
2018-11-26T17:17:37.038Z,7.00
2018-11-26T17:20:06.257Z,6.80
2018-11-26T17:22:34.647Z,6.80
2018-11-26T17:25:03.010Z,6.80
2018-11-26T17:27:32.072Z,6.80
2018-11-26T17:30:00.517Z,6.80
2018-11-26T17:32:28.925Z,6.80
2018-11-26T17:34:57.294Z,6.80
2018-11-26T17:37:25.652Z,6.80
2018-11-26T17:39:54.016Z,6.80
2018-11-26T17:42:22.389Z,6.80
2018-11-26T17:44:50.757Z,6.90
2018-11-26T17:47:19.111Z,6.90
2018-11-26T17:49:47.468Z,6.80
2018-11-26T17:52:16.486Z,6.90
2018-11-26T17:54:44.866Z,6.80
2018-11-26T17:57:13.302Z,6.80
2018-11-26T17:59:41.675Z,6.80
2018-11-26T18:02:10.049Z,6.90
2018-11-26T18:04:38.538Z,6.80
2018-11-26T18:07:07.167Z,6.80
2018-11-26T18:09:35.532Z,6.80
2018-11-26T18:12:03.938Z,6.80
2018-11-26T18:14:32.358Z,6.80
2018-11-26T18:17:00.781Z,6.70
2018-11-26T18:19:29.178Z,6.70
2018-11-26T18:21:57.534Z,6.70
2018-11-26T18:24:25.944Z,6.70
2018-11-26T18:26:54.479Z,6.70
2018-11-26T18:29:22.824Z,6.60
2018-11-26T18:31:51.149Z,6.60
2018-11-26T18:34:19.636Z,6.70
2018-11-26T18:36:48.053Z,6.70
2018-11-26T18:39:16.453Z,6.70
2018-11-26T18:41:44.806Z,6.70
2018-11-26T18:44:13.209Z,6.70
2018-11-26T18:46:41.724Z,6.80
2018-11-26T18:49:10.075Z,6.90
2018-11-26T18:51:38.461Z,6.90
2018-11-26T18:54:06.860Z,6.80
2018-11-26T18:56:35.246Z,6.80
2018-11-26T18:59:03.625Z,6.80
2018-11-26T19:01:32.074Z,6.80
2018-11-26T19:04:00.448Z,6.80
2018-11-26T19:06:28.865Z,6.80
2018-11-26T19:08:57.234Z,6.90
2018-11-26T19:11:25.904Z,6.80
2018-11-26T19:14:12.195Z,6.70
2018-11-26T19:16:43.150Z,6.70
2018-11-26T19:19:12.216Z,6.60
2018-11-26T19:21:40.596Z,6.60
2018-11-26T19:24:09.043Z,6.50
2018-11-26T19:26:37.531Z,6.40
2018-11-26T19:29:06.221Z,6.40
2018-11-26T19:31:34.661Z,6.30
2018-11-26T19:34:03.070Z,6.30
2018-11-26T19:36:31.501Z,6.20
2018-11-26T19:38:59.948Z,6.30
2018-11-26T19:41:28.365Z,6.30
2018-11-26T19:43:56.784Z,6.20
2018-11-26T19:46:25.237Z,6.20
2018-11-26T19:48:53.714Z,6.10
2018-11-26T19:51:22.371Z,6.10
2018-11-26T19:53:50.810Z,6.10
2018-11-26T19:56:19.272Z,6.10
2018-11-26T19:58:47.656Z,6.20
2018-11-26T20:01:16.118Z,6.10
2018-11-26T20:03:47.835Z,6.20
2018-11-26T20:06:20.784Z,6.00
2018-11-26T20:08:50.742Z,6.00
2018-11-26T20:11:19.278Z,6.00
2018-11-26T20:13:47.705Z,6.10
2018-11-26T20:16:19.326Z,6.10
2018-11-26T20:18:47.731Z,6.00
2018-11-26T20:21:16.169Z,6.00
2018-11-26T20:23:44.566Z,5.90
2018-11-26T20:26:13.051Z,6.00
2018-11-26T20:28:41.459Z,5.90
2018-11-26T20:31:10.389Z,5.90
2018-11-26T20:33:38.820Z,6.00
2018-11-26T20:36:10.130Z,6.00
2018-11-26T20:38:38.692Z,6.00
2018-11-26T20:41:08.313Z,6.00
2018-11-26T20:43:36.729Z,6.00
2018-11-26T20:46:05.251Z,6.00
2018-11-26T20:48:34.345Z,6.00
2018-11-26T20:51:02.797Z,6.00
2018-11-26T20:53:31.436Z,6.00
2018-11-26T20:56:00.251Z,6.00
2018-11-26T20:58:28.698Z,6.00
2018-11-26T21:00:57.866Z,6.00
2018-11-26T21:03:29.879Z,5.90
2018-11-26T21:05:58.753Z,5.90
2018-11-26T21:08:27.166Z,5.80
2018-11-26T21:10:55.583Z,5.80
2018-11-26T21:13:24.029Z,5.80
2018-11-26T21:15:52.532Z,5.80
2018-11-26T21:18:21.595Z,5.90
2018-11-26T21:20:50.716Z,5.80
2018-11-26T21:23:24.705Z,5.80
2018-11-26T21:25:53.408Z,5.80
2018-11-26T21:28:21.850Z,5.70
2018-11-26T21:30:52.268Z,5.60
2018-11-26T21:33:18.790Z,5.60
2018-11-26T21:35:47.464Z,5.60
2018-11-26T21:38:15.911Z,5.60
2018-11-26T21:40:44.389Z,5.50
2018-11-26T21:43:12.842Z,5.50
2018-11-26T21:45:48.897Z,5.50
2018-11-26T21:48:17.349Z,5.50
2018-11-26T21:50:45.844Z,5.50
2018-11-26T21:53:14.275Z,5.50
2018-11-26T21:55:42.686Z,5.50
2018-11-26T21:58:11.071Z,5.50
2018-11-26T22:00:41.256Z,5.50
2018-11-26T22:03:13.653Z,5.50
2018-11-26T22:05:43.436Z,5.50
2018-11-26T22:08:12.238Z,5.50
2018-11-26T22:10:43.594Z,5.50
2018-11-26T22:13:14.545Z,5.50
2018-11-26T22:15:42.988Z,5.50
2018-11-26T22:18:11.402Z,5.60
2018-11-26T22:20:39.834Z,5.40
2018-11-26T22:23:08.637Z,5.40
2018-11-26T22:25:37.070Z,5.50
2018-11-26T22:28:07.329Z,5.50
2018-11-26T22:30:36.502Z,5.50
2018-11-26T22:33:04.968Z,5.50
2018-11-26T22:35:33.380Z,5.30
2018-11-26T22:38:01.736Z,5.30
2018-11-26T22:40:30.154Z,5.30
2018-11-26T22:42:58.544Z,5.30
2018-11-26T22:45:29.806Z,5.30
2018-11-26T22:48:11.197Z,5.30
2018-11-26T22:50:43.970Z,5.30
2018-11-26T22:53:12.436Z,5.30
2018-11-26T22:55:40.925Z,5.30
2018-11-26T22:58:13.564Z,5.30
2018-11-26T23:00:49.415Z,5.30
2018-11-26T23:03:19.257Z,5.20
2018-11-26T23:05:47.575Z,5.30
2018-11-26T23:08:15.974Z,5.30
2018-11-26T23:10:44.953Z,5.20
2018-11-26T23:13:13.317Z,5.30
2018-11-26T23:15:41.724Z,5.30
2018-11-26T23:18:10.115Z,5.30
2018-11-26T23:20:38.472Z,5.20
2018-11-26T23:23:06.880Z,5.30
2018-11-26T23:25:35.319Z,5.20
2018-11-26T23:28:03.724Z,5.20
2018-11-26T23:30:32.361Z,5.20
2018-11-26T23:33:02.084Z,5.30
2018-11-26T23:35:30.456Z,5.20
2018-11-26T23:37:58.835Z,5.20
2018-11-26T23:40:27.240Z,5.10
2018-11-26T23:42:55.609Z,5.20
2018-11-26T23:45:25.121Z,5.30
2018-11-26T23:47:53.441Z,5.30
2018-11-26T23:50:21.832Z,5.30
2018-11-26T23:52:50.266Z,5.20
2018-11-26T23:55:20.543Z,5.20
2018-11-26T23:57:48.917Z,5.10
